EGVA - Fairford Royal AFB
Distance from station: E 5mi, 14km
Updated: 06/20/2018 8:17am
Overcast
Overcast
 Wind from W
Wind: W 18 mph , 30 km/h, Gust: 25 mph , 41 km/h
Temperature: 66°F , 19°C
Dew Point: 61°F , 16°C
Humidity: 83%
Barometer: 30.10 inHg , 1019.3 hPa
Clouds: Overcast
Visibility: 6 miles , 10 km
Cloud details: Partly Cloudy 1500 ft
Overcast 2700 ft
2018/06/20 15:17 EGVA 201517Z AUTO 26016G22KT 9999 SCT015 OVC027 19/16 A3010 RMK AO2 DZE1456RAB1456E06DZB06E17 CIG 016V027 SLP194 $